Time;durP1;ratioP1;P1;durP2;ratioP2;P2;SDS_P1;SDS_P2;PMS_P1;PMS_P2;Temp;Humidity;BMP_temperature;BMP_pressure;BME280_temperature;BME280_humidity;BME280_pressure;Samples;Min_cycle;Max_cycle;Signal;HPM_P1;HPM_P2
2022/08/09 00:01:48;;;;;;;2.72;2.10;;;;;;;13.32;78.66;98948.72;5063879;28;20029;-69
2022/08/09 00:04:18;;;;;;;6.22;2.58;;;;;;;13.40;78.91;98956.47;5062444;28;20029;-69
2022/08/09 00:06:43;;;;;;;9.27;2.92;;;;;;;13.49;78.93;98957.13;5063809;28;20092;-69
2022/08/09 00:09:10;;;;;;;7.57;2.53;;;;;;;13.44;78.76;98952.88;5063415;28;20028;-69
2022/08/09 00:11:37;;;;;;;4.38;2.80;;;;;;;13.45;79.25;98959.88;5063683;28;20032;-69
2022/08/09 00:14:02;;;;;;;8.45;2.47;;;;;;;13.31;79.70;98951.41;5047683;28;20025;-69
2022/08/09 00:16:28;;;;;;;5.43;2.67;;;;;;;13.27;80.07;98949.75;5045866;28;20049;-69
2022/08/09 00:18:53;;;;;;;4.00;2.70;;;;;;;13.29;80.01;98947.97;5062763;28;20028;-69
2022/08/09 00:21:18;;;;;;;7.38;2.80;;;;;;;13.19;80.58;98946.47;5062170;28;20033;-69
2022/08/09 00:23:44;;;;;;;14.30;3.00;;;;;;;13.28;80.31;98946.19;5047113;28;20037;-69
2022/08/09 00:26:10;;;;;;;7.40;3.15;;;;;;;13.22;80.43;98941.09;5044109;28;20025;-69
2022/08/09 00:28:36;;;;;;;6.80;3.20;;;;;;;13.12;80.63;98937.78;5043849;28;20218;-69
2022/08/09 00:31:03;;;;;;;4.30;3.00;;;;;;;13.16;80.65;98935.97;5053100;28;20036;-69
2022/08/09 00:33:28;;;;;;;4.90;2.60;;;;;;;13.13;80.47;98938.69;5049619;28;20033;-69
2022/08/09 00:35:54;;;;;;;5.03;3.22;;;;;;;13.02;80.84;98942.47;5044000;28;20210;-69
2022/08/09 00:38:20;;;;;;;5.78;3.15;;;;;;;13.02;81.16;98934.53;5047399;28;20024;-69
2022/08/09 00:40:46;;;;;;;4.43;3.05;;;;;;;12.87;82.02;98940.13;5056653;28;20221;-69
2022/08/09 00:43:12;;;;;;;5.15;3.03;;;;;;;12.95;81.42;98932.88;5044996;28;20047;-69
2022/08/09 00:45:37;;;;;;;6.53;3.00;;;;;;;12.91;81.60;98941.78;5043859;28;20053;-69
2022/08/09 00:48:04;;;;;;;8.15;2.92;;;;;;;12.96;81.92;98939.91;5043947;28;20025;-69
2022/08/09 00:50:29;;;;;;;7.22;2.80;;;;;;;12.94;82.04;98941.72;5043848;28;20025;-69
2022/08/09 00:52:55;;;;;;;4.13;2.85;;;;;;;12.89;82.10;98943.63;5057862;28;20074;-69
2022/08/09 00:55:21;;;;;;;14.02;3.67;;;;;;;12.83;82.05;98948.16;5062916;28;20088;-69
2022/08/09 00:57:46;;;;;;;8.10;3.20;;;;;;;12.67;82.50;98947.66;5051380;28;20028;-69
2022/08/09 01:00:12;;;;;;;8.45;2.90;;;;;;;12.62;83.63;98944.25;5043837;28;20079;-69
2022/08/09 01:02:41;;;;;;;8.25;3.63;;;;;;;12.63;83.72;98947.75;5054895;28;20312;-69
2022/08/09 01:05:14;;;;;;;6.88;3.13;;;;;;;12.63;83.91;98940.69;5063135;28;20017;-69
2022/08/09 01:08:08;;;;;;;7.72;3.63;;;;;;;12.47;84.21;98939.28;5062842;28;20028;-69
2022/08/09 01:10:57;;;;;;;6.82;3.08;;;;;;;12.62;84.33;98949.53;5062016;28;20104;-69
2022/08/09 01:13:36;;;;;;;5.25;3.03;;;;;;;12.66;83.87;98951.19;5046197;28;20044;-69
2022/08/09 01:16:04;;;;;;;6.40;3.17;;;;;;;12.55;83.77;98947.94;5057247;28;20208;-69
2022/08/09 01:18:33;;;;;;;6.18;3.03;;;;;;;12.59;84.02;98948.72;5053941;28;20321;-69
2022/08/09 01:21:04;;;;;;;5.20;3.20;;;;;;;12.54;84.15;98950.59;5044500;28;20347;-69
2022/08/09 01:23:39;;;;;;;8.13;3.87;;;;;;;12.50;84.10;98955.06;5063218;28;20212;-69
2022/08/09 01:26:16;;;;;;;5.85;3.15;;;;;;;12.39;84.52;98953.56;5062707;28;20021;-69
2022/08/09 01:28:46;;;;;;;9.38;3.95;;;;;;;12.43;84.58;98953.47;5062699;28;20065;-69
2022/08/09 01:31:18;;;;;;;5.95;3.53;;;;;;;12.43;84.41;98957.88;5057418;28;20048;-69
2022/08/09 01:33:45;;;;;;;8.00;3.17;;;;;;;12.39;84.27;98957.09;5054890;28;20033;-69
2022/08/09 01:36:13;;;;;;;11.27;3.30;;;;;;;12.41;84.82;98960.53;5066341;28;20032;-69
2022/08/09 01:38:49;;;;;;;9.93;3.63;;;;;;;12.37;84.71;98958.03;5065109;28;20317;-69
2022/08/09 01:41:20;;;;;;;7.97;3.85;;;;;;;12.45;84.65;98964.00;5057102;28;20084;-69
2022/08/09 01:43:49;;;;;;;16.53;4.00;;;;;;;12.48;84.41;98962.19;5047108;28;20084;-69
2022/08/09 01:46:16;;;;;;;8.40;3.83;;;;;;;12.41;84.44;98957.91;5047018;28;20326;-69
2022/08/09 01:48:44;;;;;;;8.57;3.63;;;;;;;12.38;84.46;98971.19;5047042;28;20018;-69
2022/08/09 01:51:11;;;;;;;5.68;3.42;;;;;;;12.30;84.64;98957.28;5054982;28;20097;-69
2022/08/09 01:53:38;;;;;;;5.63;3.70;;;;;;;12.22;85.11;98956.56;5046847;28;20359;-69
2022/08/09 01:56:05;;;;;;;5.78;3.97;;;;;;;12.24;85.53;98962.69;5046883;28;20021;-69
2022/08/09 01:58:32;;;;;;;7.57;3.25;;;;;;;12.15;85.73;98962.88;5046680;28;20105;-69
2022/08/09 02:00:58;;;;;;;6.72;3.72;;;;;;;12.11;85.47;98962.94;5047858;28;20224;-69
2022/08/09 02:03:24;;;;;;;11.32;3.70;;;;;;;12.11;84.94;98961.19;5047829;28;20213;-69
2022/08/09 02:05:54;;;;;;;9.85;3.95;;;;;;;11.99;85.35;98955.31;5048977;28;20047;-69
2022/08/09 02:08:23;;;;;;;10.35;4.00;;;;;;;12.01;85.87;98959.66;5065965;28;20017;-69
2022/08/09 02:10:53;;;;;;;5.72;4.05;;;;;;;12.05;85.17;98960.44;5057928;28;20029;-69
2022/08/09 02:13:22;;;;;;;8.43;3.65;;;;;;;11.91;85.35;98957.22;5046505;28;20036;-69
2022/08/09 02:15:50;;;;;;;6.88;3.95;;;;;;;11.95;86.45;98970.31;5046443;28;20033;-69
2022/08/09 02:18:21;;;;;;;8.10;4.10;;;;;;;11.94;86.61;98971.22;5046345;28;20071;-69
2022/08/09 02:20:53;;;;;;;9.97;4.33;;;;;;;11.80;86.70;98964.47;5052689;28;20309;-69
2022/08/09 02:23:21;;;;;;;6.57;4.05;;;;;;;11.64;86.75;98976.22;5065485;28;20262;-69
2022/08/09 02:25:51;;;;;;;6.90;3.92;;;;;;;11.56;87.48;98976.31;5065726;28;20036;-69
2022/08/09 02:28:39;;;;;;;9.13;4.05;;;;;;;11.69;87.19;98979.63;5056487;28;20033;-69
2022/08/09 02:31:17;;;;;;;7.68;4.07;;;;;;;11.57;87.56;98972.75;5047278;28;20194;-69
2022/08/09 02:33:46;;;;;;;7.45;4.53;;;;;;;11.46;87.08;98974.75;5057954;28;20045;-69
2022/08/09 02:36:22;;;;;;;9.60;4.40;;;;;;;11.50;87.78;98976.41;5065474;28;20032;-69
2022/08/09 02:38:52;;;;;;;9.10;4.45;;;;;;;11.36;88.05;98973.13;5065462;28;20040;-69
2022/08/09 02:41:31;;;;;;;7.72;4.60;;;;;;;11.37;88.32;98982.78;5050455;28;20214;-70
2022/08/09 02:44:05;;;;;;;8.60;4.32;;;;;;;11.32;88.59;98982.00;5057244;28;20028;-69
2022/08/09 02:46:32;;;;;;;8.65;4.70;;;;;;;11.21;89.48;98980.44;5054361;28;20067;-69
2022/08/09 02:49:04;;;;;;;8.77;4.90;;;;;;;11.22;90.14;98980.41;5045850;28;20316;-69
2022/08/09 02:51:34;;;;;;;11.02;4.95;;;;;;;11.23;89.75;98987.41;5062124;28;20025;-69
2022/08/09 02:54:02;;;;;;;10.02;4.43;;;;;;;11.29;89.93;98971.50;5045703;28;20025;-69
2022/08/09 02:56:30;;;;;;;5.30;3.72;;;;;;;11.27;89.88;98977.69;5045608;28;20033;-69
2022/08/09 02:58:58;;;;;;;7.43;3.90;;;;;;;11.23;89.98;98976.03;5056393;28;20320;-69
2022/08/09 03:01:24;;;;;;;7.32;3.83;;;;;;;11.23;89.68;98971.59;5046047;28;20035;-69
2022/08/09 03:03:52;;;;;;;6.40;4.55;;;;;;;11.23;89.80;98971.59;5045523;28;20029;-69
2022/08/09 03:06:21;;;;;;;8.55;4.60;;;;;;;11.24;89.80;98973.34;5045518;28;20321;-69
2022/08/09 03:08:48;;;;;;;5.75;4.05;;;;;;;11.14;89.27;98966.50;5045669;28;20025;-69
2022/08/09 03:11:16;;;;;;;6.28;3.78;;;;;;;11.13;90.01;98975.28;5063708;28;20029;-69
2022/08/09 03:13:44;;;;;;;7.50;4.28;;;;;;;11.15;90.07;98965.59;5064749;28;20240;-69
2022/08/09 03:16:11;;;;;;;12.73;4.00;;;;;;;11.13;90.17;98975.28;5064483;28;20228;-69
2022/08/09 03:18:37;;;;;;;8.93;4.45;;;;;;;11.09;90.01;98967.44;5053628;28;20029;-69
2022/08/09 03:21:05;;;;;;;6.85;4.68;;;;;;;11.11;90.29;98971.81;5045173;28;20060;-69
2022/08/09 03:23:30;;;;;;;7.63;4.07;;;;;;;11.10;90.23;98967.44;5045404;28;20021;-69
2022/08/09 03:25:58;;;;;;;11.50;3.90;;;;;;;10.93;89.76;98972.09;5045112;28;20389;-69
2022/08/09 03:28:25;;;;;;;5.47;3.85;;;;;;;10.89;89.78;98970.41;5044794;28;20047;-69
2022/08/09 03:30:53;;;;;;;5.00;3.67;;;;;;;10.88;90.61;98979.19;5061458;28;20256;-69
2022/08/09 03:33:20;;;;;;;6.55;4.07;;;;;;;10.90;91.04;98982.69;5064141;28;20103;-69
2022/08/09 03:35:50;;;;;;;5.85;4.15;;;;;;;10.96;91.31;98985.22;5060238;28;20089;-69
2022/08/09 03:38:16;;;;;;;9.75;4.00;;;;;;;10.91;91.15;98984.41;5044742;28;20025;-69
2022/08/09 03:40:41;;;;;;;7.55;3.90;;;;;;;10.93;91.36;98986.16;5055733;28;20070;-69
2022/08/09 03:43:06;;;;;;;7.22;3.92;;;;;;;10.88;91.10;98984.44;5064276;28;20032;-69
2022/08/09 03:45:34;;;;;;;7.05;3.80;;;;;;;10.85;91.46;98989.75;5063890;28;20268;-69
2022/08/09 03:47:59;;;;;;;5.80;4.03;;;;;;;10.89;91.50;98992.34;5064075;28;20374;-69
2022/08/09 03:50:26;;;;;;;5.10;3.53;;;;;;;10.87;91.16;98990.63;5047323;28;20084;-69
2022/08/09 03:52:53;;;;;;;5.55;3.67;;;;;;;10.88;91.27;98995.00;5043952;28;20017;-69
2022/08/09 03:55:19;;;;;;;6.18;3.33;;;;;;;10.94;91.17;99001.03;5052545;28;20313;-69
2022/08/09 03:57:45;;;;;;;5.75;3.33;;;;;;;10.84;91.30;99003.84;5045596;28;20026;-69
2022/08/09 04:00:11;;;;;;;4.57;3.17;;;;;;;10.86;91.45;99017.84;5044476;28;20025;-69
2022/08/09 04:02:38;;;;;;;5.65;3.65;;;;;;;10.78;91.62;99014.44;5064008;28;20376;-69
2022/08/09 04:05:04;;;;;;;5.13;3.78;;;;;;;10.81;91.47;99019.66;5063849;28;20059;-69
2022/08/09 04:07:29;;;;;;;10.18;3.97;;;;;;;10.85;91.36;99018.72;5062972;28;20028;-69
2022/08/09 04:09:55;;;;;;;5.20;3.40;;;;;;;10.86;91.70;99017.84;5053820;28;20086;-69
2022/08/09 04:12:46;;;;;;;7.35;3.65;;;;;;;10.81;91.49;99020.56;5045512;28;20032;-69
2022/08/09 04:15:13;;;;;;;5.88;3.47;;;;;;;10.79;91.78;99026.75;5044481;28;20059;-69
2022/08/09 04:17:40;;;;;;;5.45;3.45;;;;;;;10.84;92.61;99030.16;5044219;28;20051;-69
2022/08/09 04:20:07;;;;;;;5.97;3.25;;;;;;;10.82;91.76;99021.41;5044436;28;20044;-69
2022/08/09 04:22:33;;;;;;;4.65;2.90;;;;;;;10.89;91.60;99025.72;5044095;28;20332;-69
2022/08/09 04:24:59;;;;;;;5.40;3.03;;;;;;;10.74;91.47;99016.28;5044076;28;20063;-69
2022/08/09 04:27:25;;;;;;;3.67;2.97;;;;;;;10.83;91.62;99023.16;5043983;28;20146;-69
2022/08/09 04:29:50;;;;;;;6.72;3.80;;;;;;;10.84;91.62;99022.25;5043955;28;20312;-69
2022/08/09 04:32:16;;;;;;;4.68;3.15;;;;;;;10.87;91.33;99027.50;5044033;28;20022;-69
2022/08/09 04:34:42;;;;;;;4.25;2.88;;;;;;;10.92;91.40;99028.31;5043937;28;20092;-68
2022/08/09 04:37:07;;;;;;;4.97;3.38;;;;;;;10.93;91.20;99027.41;5043922;28;20025;-68
2022/08/09 04:39:32;;;;;;;4.25;3.10;;;;;;;10.94;91.41;99021.22;5043936;28;20071;-68
2022/08/09 04:41:58;;;;;;;6.43;3.28;;;;;;;11.03;91.31;99034.28;5044172;28;20025;-68
2022/08/09 04:44:24;;;;;;;4.43;3.00;;;;;;;10.96;91.28;99035.25;5043892;28;20025;-68
2022/08/09 04:46:49;;;;;;;4.28;3.17;;;;;;;11.10;90.95;99033.28;5043974;28;20305;-68
2022/08/09 04:49:15;;;;;;;5.13;3.00;;;;;;;11.12;91.11;99047.31;5043788;28;20028;-68
2022/08/09 04:51:40;;;;;;;3.78;2.97;;;;;;;11.10;91.15;99038.56;5043890;28;20036;-68
2022/08/09 04:54:06;;;;;;;5.93;3.20;;;;;;;11.19;91.14;99053.34;5043832;28;20096;-68
2022/08/09 04:56:31;;;;;;;6.00;3.67;;;;;;;11.08;90.97;99050.91;5043737;28;20028;-68
2022/08/09 04:58:56;;;;;;;5.32;3.20;;;;;;;11.04;91.33;99051.81;5043776;28;20104;-68
2022/08/09 05:01:22;;;;;;;4.20;2.97;;;;;;;11.07;91.73;99059.66;5043748;28;20029;-68
2022/08/09 05:03:48;;;;;;;3.47;2.83;;;;;;;11.19;91.38;99059.50;5043700;28;20329;-68
2022/08/09 05:06:14;;;;;;;5.72;2.72;;;;;;;11.19;91.17;99059.50;5047293;28;20095;-68
2022/08/09 05:08:39;;;;;;;3.42;2.67;;;;;;;11.24;91.18;99069.97;5047775;28;20025;-68
2022/08/09 05:11:06;;;;;;;5.32;3.33;;;;;;;11.31;91.27;99068.97;5047650;28;20021;-68
2022/08/09 05:13:31;;;;;;;3.17;2.60;;;;;;;11.56;91.25;99070.34;5047615;28;20028;-68
2022/08/09 05:15:56;;;;;;;4.50;2.85;;;;;;;13.09;86.77;99087.66;5047623;28;20025;-68
2022/08/09 05:18:24;;;;;;;4.43;2.65;;;;;;;14.50;79.61;99081.44;5047510;28;20037;-68
2022/08/09 05:20:49;;;;;;;4.80;2.20;;;;;;;15.64;74.27;99088.56;5047476;28;20045;-68
2022/08/09 05:23:14;;;;;;;7.30;2.10;;;;;;;16.54;70.39;99093.44;5047416;28;20032;-68
2022/08/09 05:25:40;;;;;;;4.35;2.42;;;;;;;17.21;67.70;99097.97;5047352;28;20087;-68
2022/08/09 05:28:05;;;;;;;3.33;1.67;;;;;;;17.81;64.72;99088.53;5047227;28;20034;-68
2022/08/09 05:30:31;;;;;;;4.65;2.13;;;;;;;18.21;62.95;99092.13;5047554;28;20017;-69
2022/08/09 05:32:56;;;;;;;1.98;1.60;;;;;;;18.48;62.42;99092.78;5047533;28;20183;-69
2022/08/09 05:35:22;;;;;;;3.65;1.70;;;;;;;19.13;60.77;99098.66;5047217;28;20025;-69
2022/08/09 05:37:49;;;;;;;4.00;2.03;;;;;;;19.81;59.23;99098.09;5047335;28;20093;-69
2022/08/09 05:40:15;;;;;;;2.50;1.92;;;;;;;20.02;56.80;99087.19;5047105;28;20028;-69
2022/08/09 05:42:41;;;;;;;2.95;1.98;;;;;;;20.47;56.78;99098.25;5047097;28;20092;-69
2022/08/09 05:45:07;;;;;;;2.50;1.75;;;;;;;20.57;56.71;99091.47;5047050;28;20021;-69
2022/08/09 05:47:32;;;;;;;2.03;1.48;;;;;;;21.23;56.07;99103.97;5046986;28;20233;-69
2022/08/09 05:49:58;;;;;;;4.43;1.55;;;;;;;21.51;54.98;99091.72;5046964;28;20025;-69
2022/08/09 05:52:23;;;;;;;4.60;2.00;;;;;;;21.25;55.06;99090.50;5046910;28;20025;-69
2022/08/09 05:54:49;;;;;;;4.30;1.60;;;;;;;21.52;54.39;99083.63;5046817;28;20333;-69
2022/08/09 05:57:15;;;;;;;2.78;1.42;;;;;;;21.91;54.02;99085.84;5046751;28;20090;-69
2022/08/09 05:59:40;;;;;;;4.35;1.70;;;;;;;21.53;53.82;99073.75;5046779;28;20029;-69
2022/08/09 06:02:05;;;;;;;2.25;1.92;;;;;;;21.86;55.34;99093.31;5046708;28;20021;-69
2022/08/09 06:04:31;;;;;;;3.50;1.75;;;;;;;22.28;54.05;99093.47;5046692;28;20029;-69
2022/08/09 06:06:56;;;;;;;1.83;1.60;;;;;;;22.76;52.84;99098.63;5046638;28;20017;-69
2022/08/09 06:09:22;;;;;;;3.10;1.77;;;;;;;23.64;51.36;99104.66;5046524;28;20313;-69
2022/08/09 06:11:47;;;;;;;2.35;1.42;;;;;;;23.78;50.52;99102.81;5046589;28;20025;-69
2022/08/09 06:14:13;;;;;;;2.33;1.75;;;;;;;24.61;49.37;99114.22;5046453;28;20033;-69
2022/08/09 06:16:38;;;;;;;6.00;2.22;;;;;;;24.85;48.67;99115.25;5045591;28;20094;-69
2022/08/09 06:19:04;;;;;;;2.80;1.75;;;;;;;25.70;47.10;99119.97;5046476;28;20045;-69
2022/08/09 06:21:29;;;;;;;5.60;1.98;;;;;;;25.82;47.41;99113.66;5046386;28;20348;-69
2022/08/09 06:23:55;;;;;;;9.13;2.17;;;;;;;25.78;46.24;99110.31;5046564;28;20043;-69
2022/08/09 06:26:21;;;;;;;5.75;2.10;;;;;;;25.64;47.40;99115.88;5046231;28;20017;-69
2022/08/09 06:28:51;;;;;;;2.83;1.75;;;;;;;26.80;45.10;99120.59;5046058;28;20105;-69
2022/08/09 06:31:17;;;;;;;5.03;2.25;;;;;;;26.99;43.77;99120.88;5046208;28;20025;-69
2022/08/09 06:33:43;;;;;;;5.35;2.33;;;;;;;27.76;43.61;99139.88;5046231;28;20031;-69
2022/08/09 06:36:09;;;;;;;4.53;1.80;;;;;;;28.39;43.05;99137.31;5046387;28;20097;-69
2022/08/09 06:38:34;;;;;;;3.80;2.17;;;;;;;28.97;41.35;99147.66;5045971;28;20017;-69
2022/08/09 06:40:59;;;;;;;4.75;2.40;;;;;;;29.14;41.99;99149.78;5045991;28;20026;-69
2022/08/09 06:43:25;;;;;;;5.90;2.30;;;;;;;30.09;38.07;99153.97;5046001;28;20029;-69
2022/08/09 06:45:50;;;;;;;4.85;2.28;;;;;;;30.41;36.34;99151.94;5045976;28;20049;-69
2022/08/09 06:48:16;;;;;;;5.88;2.38;;;;;;;30.56;35.85;99147.81;5045963;28;20329;-69
2022/08/09 06:50:41;;;;;;;6.18;2.42;;;;;;;30.39;35.60;99146.63;5045879;28;20198;-69
2022/08/09 06:53:07;;;;;;;4.60;2.38;;;;;;;30.88;34.45;99148.41;5046136;28;20093;-69
2022/08/09 06:55:32;;;;;;;3.55;1.98;;;;;;;31.10;34.02;99138.06;5045722;28;20025;-69
2022/08/09 06:57:59;;;;;;;6.68;2.65;;;;;;;31.60;34.63;99155.00;5045572;28;20021;-70
2022/08/09 07:00:25;;;;;;;7.93;2.58;;;;;;;31.27;32.90;99143.75;5045636;28;20347;-69
2022/08/09 07:02:50;;;;;;;10.30;2.63;;;;;;;31.15;33.41;99137.63;5045618;28;20052;-69
2022/08/09 07:05:16;;;;;;;7.90;2.70;;;;;;;31.95;32.40;99146.16;5045566;28;20029;-69
2022/08/09 07:07:42;;;;;;;7.93;2.78;;;;;;;32.15;32.41;99148.63;5045520;28;20018;-69
2022/08/09 07:10:07;;;;;;;7.00;2.80;;;;;;;31.51;32.03;99139.56;5045681;28;20236;-70
2022/08/09 07:12:33;;;;;;;6.05;2.53;;;;;;;31.87;33.12;99148.75;5045409;28;20029;-70
2022/08/09 07:14:58;;;;;;;7.13;2.40;;;;;;;31.75;32.57;99134.44;5045628;28;20092;-69
2022/08/09 07:17:24;;;;;;;5.68;2.72;;;;;;;30.31;33.21;99126.63;5045481;28;20380;-70
2022/08/09 07:19:49;;;;;;;4.78;2.72;;;;;;;31.43;32.39;99142.16;5045308;28;20021;-70
2022/08/09 07:22:15;;;;;;;10.38;2.88;;;;;;;30.86;32.22;99140.41;5045262;28;20097;-70
2022/08/09 07:24:41;;;;;;;4.25;2.88;;;;;;;30.93;32.07;99135.22;5045137;28;20084;-70
2022/08/09 07:27:10;;;;;;;7.25;2.60;;;;;;;31.05;31.92;99132.22;5044968;28;20021;-69
2022/08/09 07:29:36;;;;;;;6.63;2.78;;;;;;;31.96;31.52;99159.63;5044959;28;20037;-69
2022/08/09 07:32:02;;;;;;;6.70;2.83;;;;;;;31.94;31.69;99153.47;5045048;28;20035;-69
2022/08/09 07:34:28;;;;;;;6.35;2.83;;;;;;;32.20;31.54;99157.19;5044964;28;20096;-70
2022/08/09 07:36:54;;;;;;;6.85;2.60;;;;;;;32.69;31.04;99158.59;5044862;28;20029;-70
2022/08/09 07:39:20;;;;;;;7.38;2.53;;;;;;;32.14;30.88;99151.50;5045096;28;20063;-69
2022/08/09 07:41:45;;;;;;;7.40;2.75;;;;;;;32.93;29.65;99169.75;5044823;28;20089;-70
2022/08/09 07:44:11;;;;;;;11.60;2.50;;;;;;;32.32;30.21;99150.50;5044873;28;20029;-69
2022/08/09 07:46:36;;;;;;;5.43;2.80;;;;;;;32.82;29.90;99165.38;5044755;28;20325;-70
2022/08/09 07:49:02;;;;;;;11.98;3.17;;;;;;;32.89;29.30;99171.94;5044700;28;20049;-70
2022/08/09 07:51:27;;;;;;;7.28;2.70;;;;;;;32.81;29.47;99163.66;5044611;28;20025;-70
2022/08/09 07:53:53;;;;;;;6.68;2.70;;;;;;;33.13;28.81;99158.50;5044638;28;20017;-70
2022/08/09 07:56:18;;;;;;;6.20;2.95;;;;;;;32.78;29.88;99158.50;5044595;28;20321;-70
2022/08/09 07:58:44;;;;;;;6.85;2.72;;;;;;;33.08;29.62;99160.88;5044673;28;20369;-69
2022/08/09 08:01:10;;;;;;;7.40;2.70;;;;;;;31.86;30.33;99150.63;5044557;28;20048;-70
2022/08/09 08:03:36;;;;;;;5.88;2.20;;;;;;;31.66;30.52;99139.97;5045011;28;20043;-69
2022/08/09 08:06:01;;;;;;;6.03;2.80;;;;;;;31.80;30.85;99148.50;5044417;28;20021;-70
2022/08/09 08:08:27;;;;;;;6.10;3.20;;;;;;;32.62;31.10;99180.16;5044333;28;20018;-70
2022/08/09 08:10:52;;;;;;;5.30;2.70;;;;;;;32.98;30.31;99187.38;5044397;28;20132;-70
2022/08/09 08:13:17;;;;;;;4.85;2.65;;;;;;;34.00;28.66;99191.19;5044347;28;20028;-70
2022/08/09 08:15:43;;;;;;;12.02;3.05;;;;;;;33.87;28.54;99174.41;5044345;28;20097;-69
2022/08/09 08:18:08;;;;;;;18.05;2.72;;;;;;;33.42;29.06;99179.22;5044229;28;20029;-69
2022/08/09 08:20:33;;;;;;;6.45;2.60;;;;;;;33.20;29.15;99169.66;5044208;28;20025;-70
2022/08/09 08:23:01;;;;;;;9.32;3.38;;;;;;;33.72;28.62;99176.03;5044131;28;20060;-70
2022/08/09 08:25:27;;;;;;;10.27;3.08;;;;;;;33.01;29.11;99162.50;5044397;28;20021;-70
2022/08/09 08:27:52;;;;;;;7.20;2.58;;;;;;;33.22;28.96;99161.31;5043990;28;20264;-70
2022/08/09 08:30:18;;;;;;;8.40;2.85;;;;;;;33.44;28.75;99172.59;5044367;28;20049;-70
2022/08/09 08:32:44;;;;;;;9.25;3.00;;;;;;;33.09;28.27;99168.03;5044085;28;20032;-70
2022/08/09 08:35:09;;;;;;;6.55;2.58;;;;;;;32.69;29.73;99159.47;5044104;28;20032;-69
2022/08/09 08:37:35;;;;;;;6.15;2.70;;;;;;;33.48;28.89;99178.59;5043849;28;20045;-69
2022/08/09 08:40:04;;;;;;;9.30;3.00;;;;;;;32.28;28.90;99150.97;5043515;28;20021;-70
2022/08/09 08:42:30;;;;;;;5.50;2.80;;;;;;;32.43;29.17;99150.31;5043888;28;20032;-70
2022/08/09 08:44:58;;;;;;;7.88;2.78;;;;;;;32.94;29.14;99169.59;5043965;28;20072;-69
2022/08/09 08:47:27;;;;;;;4.57;2.85;;;;;;;33.70;28.87;99178.91;5044131;28;20021;-70
2022/08/09 08:49:54;;;;;;;6.85;2.80;;;;;;;33.29;28.58;99165.97;5043885;28;20045;-69
2022/08/09 08:52:25;;;;;;;8.55;2.80;;;;;;;33.78;27.91;99158.97;5043817;28;20025;-69
2022/08/09 08:54:55;;;;;;;5.55;2.92;;;;;;;34.21;28.48;99169.78;5043872;28;20029;-69
2022/08/09 08:57:21;;;;;;;7.10;2.78;;;;;;;34.46;27.09;99171.59;5043731;28;20053;-69
2022/08/09 08:59:48;;;;;;;9.38;2.55;;;;;;;34.29;28.91;99178.03;5044026;28;20021;-69
2022/08/09 09:02:25;;;;;;;4.75;2.90;;;;;;;35.14;27.03;99184.03;5043738;28;20044;-69
2022/08/09 09:05:00;;;;;;;5.53;2.47;;;;;;;34.15;28.29;99171.31;5043993;28;20048;-69
2022/08/09 09:07:29;;;;;;;7.60;2.65;;;;;;;33.82;27.73;99154.91;5043710;28;20321;-69
2022/08/09 09:09:55;;;;;;;4.40;2.88;;;;;;;34.64;27.34;99167.72;5043663;28;20044;-69
2022/08/09 09:12:25;;;;;;;7.30;2.90;;;;;;;35.53;27.63;99185.09;5043897;28;20040;-69
2022/08/09 09:14:53;;;;;;;10.45;2.85;;;;;;;34.99;26.67;99163.88;5043633;28;20367;-69
2022/08/09 09:17:19;;;;;;;5.15;2.60;;;;;;;33.82;27.81;99154.91;5043458;28;20022;-69
2022/08/09 09:19:44;;;;;;;7.22;3.15;;;;;;;33.64;28.08;99156.84;5043598;28;20067;-69
2022/08/09 09:22:13;;;;;;;6.53;2.67;;;;;;;33.95;28.33;99155.34;5043620;28;20053;-69
2022/08/09 09:24:45;;;;;;;11.75;2.95;;;;;;;34.95;27.74;99165.22;5043627;28;20087;-69
2022/08/09 09:27:16;;;;;;;4.82;2.65;;;;;;;34.18;27.41;99156.44;5043516;28;20045;-69
2022/08/09 09:29:43;;;;;;;9.20;2.75;;;;;;;34.26;28.80;99153.75;5043340;28;20061;-69
2022/08/09 09:32:10;;;;;;;10.93;2.83;;;;;;;34.64;27.21;99161.41;5043459;28;20025;-69
2022/08/09 09:34:37;;;;;;;12.32;3.08;;;;;;;34.44;27.36;99149.03;5043476;28;20033;-69
2022/08/09 09:37:04;;;;;;;4.47;2.60;;;;;;;34.09;27.73;99151.97;5043355;28;20029;-69
2022/08/09 09:39:30;;;;;;;7.05;2.55;;;;;;;33.80;28.09;99162.38;5043401;28;20025;-69
2022/08/09 09:41:57;;;;;;;6.70;2.72;;;;;;;34.15;28.23;99154.03;5043385;28;20340;-69
2022/08/09 09:44:27;;;;;;;8.52;3.10;;;;;;;33.97;28.13;99147.84;5043366;28;20025;-69
2022/08/09 09:47:04;;;;;;;8.27;3.10;;;;;;;34.13;28.31;99147.91;5043391;28;20080;-69
2022/08/09 09:49:29;;;;;;;8.23;2.97;;;;;;;34.87;28.61;99148.81;5043357;28;20044;-69
2022/08/09 09:52:07;;;;;;;5.45;3.00;;;;;;;35.57;27.86;99147.22;5044567;28;20317;-69
2022/08/09 09:54:46;;;;;;;11.40;3.08;;;;;;;35.93;26.89;99141.16;5047152;28;20325;-69
2022/08/09 09:57:13;;;;;;;10.23;3.05;;;;;;;36.27;26.72;99144.47;5046819;28;20022;-69
2022/08/09 09:59:39;;;;;;;5.80;2.92;;;;;;;34.94;26.86;99127.94;5046878;28;20029;-69
2022/08/09 10:02:05;;;;;;;8.38;2.83;;;;;;;33.93;28.07;99122.72;5046752;28;20140;-69
2022/08/09 10:04:30;;;;;;;6.15;2.58;;;;;;;34.01;28.51;99116.44;5046700;28;20045;-69
2022/08/09 10:06:56;;;;;;;10.57;2.80;;;;;;;33.98;28.63;99116.75;5046687;28;20028;-69
2022/08/09 10:09:21;;;;;;;4.07;2.53;;;;;;;33.38;28.75;99120.50;5046619;28;20032;-69
2022/08/09 10:11:47;;;;;;;6.25;2.92;;;;;;;33.58;28.48;99119.25;5046643;28;20025;-69
2022/08/09 10:14:29;;;;;;;6.20;2.97;;;;;;;33.85;29.42;99116.34;5046592;28;20025;-69
2022/08/09 10:16:55;;;;;;;8.57;2.90;;;;;;;34.25;27.96;99130.16;5046437;28;20025;-69
2022/08/09 10:19:35;;;;;;;6.80;2.83;;;;;;;34.40;28.86;99121.19;5046675;28;20108;-69
2022/08/09 10:22:01;;;;;;;5.43;2.72;;;;;;;34.46;27.55;99123.25;5046684;28;20087;-69
2022/08/09 10:24:27;;;;;;;7.22;2.83;;;;;;;34.51;27.87;99112.66;5046368;28;20336;-69
2022/08/09 10:26:55;;;;;;;6.43;2.50;;;;;;;33.93;27.53;99113.66;5046257;28;20092;-69
2022/08/09 10:29:21;;;;;;;7.55;2.75;;;;;;;33.65;27.88;99136.69;5046111;28;20049;-69
2022/08/09 10:31:47;;;;;;;8.32;2.97;;;;;;;33.33;28.70;99117.38;5046227;28;20202;-69
2022/08/09 10:34:14;;;;;;;6.05;2.80;;;;;;;33.39;28.12;99114.91;5046381;28;20313;-69
2022/08/09 10:36:40;;;;;;;6.90;2.50;;;;;;;34.47;28.36;99129.56;5046321;28;20147;-69
2022/08/09 10:39:05;;;;;;;5.43;2.50;;;;;;;34.95;27.13;99121.44;5046035;28;20028;-69
2022/08/09 10:41:31;;;;;;;3.65;2.08;;;;;;;34.71;27.53;99121.41;5046075;28;20284;-69
2022/08/09 10:43:57;;;;;;;5.60;2.80;;;;;;;33.77;27.37;99108.09;5046001;28;20029;-69
2022/08/09 10:47:00;;;;;;;5.85;2.60;;;;;;;32.98;27.83;99108.28;5045908;28;20017;-69
2022/08/09 10:49:40;;;;;;;3.13;2.40;;;;;;;32.54;28.47;99111.06;5045863;28;20225;-69
2022/08/09 10:52:45;;;;;;;6.38;2.80;;;;;;;32.69;28.40;99124.03;5045837;28;20301;-69
2022/08/09 10:55:30;;;;;;;8.90;3.05;;;;;;;32.50;28.99;99116.00;5044172;28;20037;-69
2022/08/09 10:57:56;;;;;;;4.65;2.92;;;;;;;33.09;29.67;99121.63;5045650;28;20032;-69
2022/08/09 11:00:35;;;;;;;3.67;2.42;;;;;;;33.76;27.44;99117.31;5045735;28;20018;-69
2022/08/09 11:03:02;;;;;;;6.65;2.63;;;;;;;33.18;28.45;99119.00;5045277;28;20030;-69
2022/08/09 11:05:28;;;;;;;6.43;2.50;;;;;;;32.74;28.56;99097.13;5045828;28;20035;-69
2022/08/09 11:07:53;;;;;;;4.07;2.42;;;;;;;32.49;29.01;99095.19;5045523;28;20092;-69
2022/08/09 11:10:52;;;;;;;5.50;2.80;;;;;;;32.60;28.82;99089.50;5045700;28;20017;-69
2022/08/09 11:13:18;;;;;;;3.60;2.47;;;;;;;32.45;29.46;99101.97;5044520;28;20033;-69
2022/08/09 11:15:44;;;;;;;7.03;2.67;;;;;;;32.25;29.51;99084.03;5045379;28;20053;-69
2022/08/09 11:18:11;;;;;;;6.22;2.50;;;;;;;32.68;30.40;99086.00;5045325;28;20021;-69
2022/08/09 11:20:46;;;;;;;6.28;2.58;;;;;;;32.55;29.35;99091.84;5045513;28;20241;-69
2022/08/09 11:23:13;;;;;;;6.22;2.72;;;;;;;32.51;28.53;99074.09;5045220;28;20021;-69
2022/08/09 11:25:42;;;;;;;4.72;2.97;;;;;;;32.79;29.34;99089.34;5045159;28;20029;-69
2022/08/09 11:28:33;;;;;;;14.07;2.80;;;;;;;33.25;30.96;99095.50;5044897;28;20079;-69
2022/08/09 11:30:59;;;;;;;;;;;;;;;32.46;29.71;99076.41;5045499;28;20029;-69
2022/08/09 11:33:25;;;;;;;7.35;2.55;;;;;;;32.24;30.62;99081.44;5044994;28;19932;-69
2022/08/09 11:35:58;;;;;;;7.78;2.90;;;;;;;31.78;30.54;99074.25;5045034;28;20345;-69
2022/08/09 11:38:29;;;;;;;4.10;2.58;;;;;;;31.39;30.18;99067.28;5045120;28;20045;-69